Аэропорт
Международный аэропорт Кансай (RJBB)

 RJBB / KIX

Japan
JP-27
Осака
 34.42730, 135.24400  / 26 ft

 RJBB 201630Z AUTO 05002KT 9999 NCD 07/03 Q1034 NOSIG
 TAF RJBB 201106Z 2012/2118 01012KT 9999 FEW035 BECMG 2103/2106 20007KT

2020 © VATRUS division (Privacy Policy)